Terminal Aerodrome Forecast
Issued by NWS Duluth, MN

Home | Current Version | Previous Version | Text Only | Print | Product List | Glossary On
Versions: 1 2 3 4 5 6 7 8 9 10 11 12 13 14 15 16 17 18 19 20
175
FTUS43 KDLH 280520
TAFINL
TAF
KINL 280520Z 2806/2906 00000KT P6SM SKC
     FM280800 00000KT 5SM BR SKC
     FM281400 VRB04KT P6SM SCT150
     FM281700 23005KT P6SM BKN050=

USA.gov is the U.S. government's official web portal to all federal, state and local government web resources and services.